Time;durP1;ratioP1;P1;durP2;ratioP2;P2;SDS_P1;SDS_P2;PMS_P1;PMS_P2;Temp;Humidity;BMP_temperature;BMP_pressure;BME280_temperature;BME280_humidity;BME280_pressure;Samples;Min_cycle;Max_cycle;Signal;HPM_P1;HPM_P2
2023/10/31 00:00:18;;;;;;;6.20;5.30;;;;;;;15.48;100.00;97674.81;5093777;28;20058;-48
2023/10/31 00:02:44;;;;;;;5.90;3.63;;;;;;;15.64;100.00;97676.47;5095021;28;20031;-48
2023/10/31 00:05:09;;;;;;;8.05;3.40;;;;;;;15.52;100.00;97683.81;5093666;28;20024;-47
2023/10/31 00:07:35;;;;;;;19.42;17.35;;;;;;;15.37;100.00;97685.31;5093593;28;20506;-48
2023/10/31 00:10:01;;;;;;;5.68;4.45;;;;;;;15.54;100.00;97679.06;5094784;28;20031;-47
2023/10/31 00:12:27;;;;;;;4.53;3.60;;;;;;;15.27;100.00;97681.81;5094893;28;20034;-47
2023/10/31 00:14:52;;;;;;;4.50;2.80;;;;;;;14.73;100.00;97688.06;5094585;28;20131;-47
2023/10/31 00:17:18;;;;;;;13.20;5.30;;;;;;;14.25;100.00;97682.56;5094628;28;20048;-47
2023/10/31 00:19:44;;;;;;;44.70;40.85;;;;;;;13.95;100.00;97681.19;5094727;28;20032;-48
2023/10/31 00:22:10;;;;;;;8.38;7.57;;;;;;;13.65;100.00;97683.47;5093639;28;20103;-48
2023/10/31 00:24:35;;;;;;;10.57;6.18;;;;;;;13.31;100.00;97689.59;5094563;28;20103;-47
2023/10/31 00:27:01;;;;;;;7.25;3.75;;;;;;;13.05;100.00;97687.63;5094605;28;20024;-47
2023/10/31 00:29:27;;;;;;;10.05;6.93;;;;;;;12.93;100.00;97688.47;5093273;28;20106;-47
2023/10/31 00:31:52;;;;;;;6.25;3.80;;;;;;;12.89;100.00;97686.59;5093321;28;20024;-47
2023/10/31 00:34:18;;;;;;;9.80;5.25;;;;;;;12.86;100.00;97687.03;5094635;28;20428;-47
2023/10/31 00:36:43;;;;;;;6.95;4.47;;;;;;;12.87;100.00;97692.06;5093265;28;20024;-47
2023/10/31 00:39:09;;;;;;;7.38;5.93;;;;;;;12.76;100.00;97692.97;5094383;28;20026;-47
2023/10/31 00:41:35;;;;;;;11.27;4.75;;;;;;;12.60;100.00;97699.81;5092935;28;20051;-47
2023/10/31 00:44:00;;;;;;;10.82;7.00;;;;;;;12.47;100.00;97714.03;5094177;28;20032;-47
2023/10/31 00:46:26;;;;;;;38.78;16.00;;;;;;;12.41;100.00;97712.38;5094178;28;20024;-47
2023/10/31 00:48:52;;;;;;;12.02;9.45;;;;;;;12.22;100.00;97714.41;5092803;28;20020;-47
2023/10/31 00:51:17;;;;;;;8.40;5.75;;;;;;;12.17;100.00;97717.75;5094011;28;20024;-47
2023/10/31 00:53:43;;;;;;;17.60;11.68;;;;;;;12.30;100.00;97726.38;5092768;28;20024;-47
2023/10/31 00:56:09;;;;;;;154.18;141.57;;;;;;;12.54;100.00;97725.25;5092582;28;20020;-47
2023/10/31 00:58:35;;;;;;;352.60;320.85;;;;;;;12.76;100.00;97730.63;5092575;28;20028;-47
2023/10/31 01:01:00;;;;;;;20.63;18.45;;;;;;;13.03;100.00;97726.56;5093842;28;20073;-47
2023/10/31 01:03:26;;;;;;;99.25;90.65;;;;;;;12.98;100.00;97722.81;5092466;28;20030;-47
2023/10/31 01:05:52;;;;;;;9.27;7.07;;;;;;;13.13;100.00;97714.34;5092478;28;20024;-47
2023/10/31 01:08:17;;;;;;;91.65;81.95;;;;;;;13.12;100.00;97710.13;5094108;28;20388;-48
2023/10/31 01:10:43;;;;;;;11.63;8.07;;;;;;;12.84;100.00;97716.28;5092317;28;20031;-48
2023/10/31 01:13:09;;;;;;;23.35;21.13;;;;;;;12.77;100.00;97719.03;5092343;28;20061;-48
2023/10/31 01:15:34;;;;;;;6.88;5.15;;;;;;;12.83;100.00;97719.94;5091999;28;20131;-48
2023/10/31 01:18:00;;;;;;;7.68;5.18;;;;;;;12.99;100.00;97719.13;5092184;28;20020;-48
2023/10/31 01:20:26;;;;;;;7.25;5.25;;;;;;;13.19;100.00;97718.66;5093440;28;20403;-47
2023/10/31 01:22:52;;;;;;;24.42;22.30;;;;;;;13.51;100.00;97712.81;5093394;28;20050;-47
2023/10/31 01:25:18;;;;;;;6.65;4.10;;;;;;;13.88;100.00;97724.59;5093381;28;20020;-47
2023/10/31 01:27:43;;;;;;;7.00;5.85;;;;;;;13.88;100.00;97733.31;5092358;28;20524;-48
2023/10/31 01:30:10;;;;;;;14.88;12.93;;;;;;;13.79;100.00;97737.44;5092252;28;20089;-48
2023/10/31 01:32:35;;;;;;;5.07;4.07;;;;;;;13.77;100.00;97735.03;5093246;28;20020;-48
2023/10/31 01:35:01;;;;;;;10.98;3.13;;;;;;;13.74;100.00;97743.44;5093203;28;20032;-47
2023/10/31 01:37:27;;;;;;;8.80;3.65;;;;;;;13.36;100.00;97745.03;5091778;28;20036;-47
2023/10/31 01:39:53;;;;;;;13.18;10.93;;;;;;;13.23;100.00;97740.03;5091866;28;20031;-47
2023/10/31 01:42:18;;;;;;;7.88;3.42;;;;;;;13.11;100.00;97744.59;5093020;28;20489;-48
2023/10/31 01:44:44;;;;;;;6.30;3.70;;;;;;;13.03;100.00;97747.63;5092966;28;20047;-47
2023/10/31 01:47:10;;;;;;;14.05;11.13;;;;;;;13.37;100.00;97749.25;5092949;28;20038;-47
2023/10/31 01:49:36;;;;;;;7.32;2.50;;;;;;;13.87;100.00;97754.69;5092945;28;20028;-47
2023/10/31 01:52:06;;;;;;;6.30;3.17;;;;;;;13.42;100.00;97751.19;5092837;28;20103;-48
2023/10/31 01:54:34;;;;;;;8.27;3.08;;;;;;;13.08;100.00;97755.59;5091519;28;20115;-47
2023/10/31 01:57:01;;;;;;;7.68;2.88;;;;;;;13.14;100.00;97747.56;5092726;28;20024;-47
2023/10/31 01:59:27;;;;;;;4.35;1.90;;;;;;;13.07;100.00;97752.19;5092832;28;20375;-47
2023/10/31 02:01:55;;;;;;;5.68;2.17;;;;;;;12.45;100.00;97760.84;5092680;28;20017;-48
2023/10/31 02:04:21;;;;;;;5.38;1.70;;;;;;;12.04;100.00;97761.91;5092255;28;20024;-47
2023/10/31 02:06:47;;;;;;;21.38;19.48;;;;;;;11.76;100.00;97766.81;5091260;28;20027;-48
2023/10/31 02:09:12;;;;;;;9.20;4.55;;;;;;;11.75;100.00;97767.06;5091276;28;20024;-47
2023/10/31 02:11:38;;;;;;;23.65;21.05;;;;;;;11.71;100.00;97776.44;5091244;28;20024;-47
2023/10/31 02:14:04;;;;;;;7.78;6.97;;;;;;;12.17;100.00;97769.53;5092488;28;20053;-47
2023/10/31 02:16:29;;;;;;;4.90;2.50;;;;;;;12.81;100.00;97763.34;5091003;28;20569;-47
2023/10/31 02:18:55;;;;;;;5.10;1.70;;;;;;;13.26;100.00;97773.00;5091103;28;20028;-47
2023/10/31 02:21:21;;;;;;;4.15;2.03;;;;;;;13.60;100.00;97768.53;5092423;28;20012;-47
2023/10/31 02:24:00;;;;;;;3.60;1.92;;;;;;;13.96;100.00;97776.94;5092312;28;20045;-47
2023/10/31 02:26:30;;;;;;;14.48;13.18;;;;;;;14.23;100.00;97778.88;5092581;28;20023;-47
2023/10/31 02:28:55;;;;;;;20.40;18.70;;;;;;;14.44;100.00;97780.66;5092304;28;20493;-47
2023/10/31 02:31:21;;;;;;;7.28;5.68;;;;;;;14.17;100.00;97778.78;5090822;28;20106;-47
2023/10/31 02:33:47;;;;;;;7.95;2.20;;;;;;;14.10;100.00;97780.81;5092244;28;20024;-48
2023/10/31 02:36:13;;;;;;;6.55;4.05;;;;;;;14.01;100.00;97782.28;5090824;28;20030;-48
2023/10/31 02:38:39;;;;;;;4.45;1.70;;;;;;;13.72;100.00;97790.34;5092032;28;20107;-47
2023/10/31 02:41:05;;;;;;;9.05;5.57;;;;;;;13.66;100.00;97780.78;5090779;28;20406;-47
2023/10/31 02:43:31;;;;;;;6.45;4.65;;;;;;;13.98;100.00;97788.84;5090753;28;20028;-47
2023/10/31 02:45:56;;;;;;;8.30;2.97;;;;;;;14.12;100.00;97789.28;5090690;28;20074;-47
2023/10/31 02:48:23;;;;;;;5.47;1.63;;;;;;;14.33;100.00;97792.19;5092034;28;20028;-47
2023/10/31 02:50:49;;;;;;;10.98;6.45;;;;;;;14.11;100.00;97792.19;5091990;28;20078;-47
2023/10/31 02:53:15;;;;;;;4.22;2.65;;;;;;;13.76;100.00;97783.56;5092178;28;20036;-47
2023/10/31 02:55:40;;;;;;;3.42;1.60;;;;;;;13.85;100.00;97780.50;5091890;28;20497;-47
2023/10/31 02:58:06;;;;;;;3.08;1.27;;;;;;;13.65;100.00;97781.81;5091820;28;20107;-47
2023/10/31 03:00:32;;;;;;;3.17;1.35;;;;;;;13.44;100.00;97785.19;5090556;28;20444;-47
2023/10/31 03:02:58;;;;;;;4.85;1.58;;;;;;;12.97;100.00;97787.03;5090527;28;20424;-47
2023/10/31 03:05:23;;;;;;;3.78;1.20;;;;;;;12.80;100.00;97794.13;5091858;28;20025;-47
2023/10/31 03:07:49;;;;;;;5.95;1.90;;;;;;;12.79;100.00;97792.53;5091832;28;20024;-47
2023/10/31 03:10:15;;;;;;;5.10;1.75;;;;;;;12.89;100.00;97792.69;5090458;28;20161;-47
2023/10/31 03:12:41;;;;;;;3.00;1.58;;;;;;;13.25;100.00;97785.41;5091748;28;20028;-47
2023/10/31 03:15:07;;;;;;;7.22;4.28;;;;;;;13.51;100.00;97783.97;5092937;28;20044;-48
2023/10/31 03:17:33;;;;;;;5.25;1.40;;;;;;;13.92;100.00;97789.00;5095845;28;20043;-47
2023/10/31 03:19:58;;;;;;;2.00;1.20;;;;;;;14.08;100.00;97790.00;5095828;28;20129;-47
2023/10/31 03:22:24;;;;;;;3.10;1.25;;;;;;;13.81;100.00;97789.94;5095804;28;20020;-47
2023/10/31 03:24:50;;;;;;;4.15;1.27;;;;;;;13.55;100.00;97795.63;5095770;28;20028;-47
2023/10/31 03:27:16;;;;;;;3.55;1.65;;;;;;;13.14;100.00;97799.47;5095677;28;20020;-48
2023/10/31 03:29:41;;;;;;;2.85;1.70;;;;;;;12.77;100.00;97802.50;5095651;28;20024;-47
2023/10/31 03:32:07;;;;;;;6.07;2.35;;;;;;;12.65;100.00;97799.13;5095611;28;20050;-47
2023/10/31 03:34:33;;;;;;;6.15;1.52;;;;;;;12.66;100.00;97795.47;5095615;28;20121;-47
2023/10/31 03:36:59;;;;;;;6.10;4.00;;;;;;;12.50;100.00;97789.91;5094140;28;20487;-47
2023/10/31 03:39:25;;;;;;;5.35;2.08;;;;;;;12.28;100.00;97788.97;5094189;28;20116;-48
2023/10/31 03:41:50;;;;;;;1.95;1.25;;;;;;;12.12;100.00;97788.66;5095415;28;20046;-47
2023/10/31 03:44:16;;;;;;;4.43;1.52;;;;;;;12.12;100.00;97793.91;5095313;28;20077;-48
2023/10/31 03:46:41;;;;;;;2.85;1.83;;;;;;;12.24;100.00;97806.25;5094002;28;20404;-47
2023/10/31 03:49:07;;;;;;;3.35;1.45;;;;;;;12.21;100.00;97801.44;5094006;28;20031;-48
2023/10/31 03:51:34;;;;;;;2.38;1.10;;;;;;;12.64;100.00;97808.06;5094040;28;20024;-48
2023/10/31 03:54:00;;;;;;;2.05;1.27;;;;;;;13.05;100.00;97806.94;5095169;28;20435;-48
2023/10/31 03:56:25;;;;;;;6.53;4.22;;;;;;;13.56;100.00;97799.88;5095184;28;20050;-48
2023/10/31 03:58:51;;;;;;;4.57;2.30;;;;;;;13.79;100.00;97795.44;5095121;28;20046;-48
2023/10/31 04:01:17;;;;;;;3.97;1.80;;;;;;;13.99;100.00;97794.94;5094991;28;20078;-48
2023/10/31 04:03:43;;;;;;;2.42;1.23;;;;;;;14.23;100.00;97784.94;5095057;28;20024;-47
2023/10/31 04:06:09;;;;;;;5.35;2.03;;;;;;;14.27;100.00;97782.59;5093667;28;20443;-48
2023/10/31 04:08:34;;;;;;;4.65;2.30;;;;;;;14.22;100.00;97783.31;5094958;28;20028;-48
2023/10/31 04:11:00;;;;;;;4.60;1.70;;;;;;;14.23;100.00;97781.50;5093578;28;20059;-48
2023/10/31 04:13:26;;;;;;;2.63;1.98;;;;;;;14.43;100.00;97776.44;5093509;28;20031;-48
2023/10/31 04:15:52;;;;;;;3.72;1.40;;;;;;;14.69;100.00;97779.38;5094595;28;20097;-48
2023/10/31 04:18:18;;;;;;;3.13;1.20;;;;;;;14.80;100.00;97777.63;5093399;28;20397;-48
2023/10/31 04:20:44;;;;;;;5.47;1.77;;;;;;;14.73;100.00;97783.13;5094712;28;20058;-48
2023/10/31 04:23:11;;;;;;;4.10;2.00;;;;;;;14.63;100.00;97789.09;5093412;28;20048;-48
2023/10/31 04:25:37;;;;;;;9.93;1.10;;;;;;;14.60;100.00;97788.78;5094196;28;20411;-47
2023/10/31 04:28:03;;;;;;;2.45;0.80;;;;;;;14.26;100.00;97784.44;5094555;28;20035;-48
2023/10/31 04:30:29;;;;;;;5.15;1.15;;;;;;;13.85;100.00;97783.13;5093465;28;20020;-48
2023/10/31 04:32:55;;;;;;;5.07;2.00;;;;;;;13.55;100.00;97790.38;5093248;28;20029;-48
2023/10/31 04:35:20;;;;;;;4.65;1.50;;;;;;;13.60;100.00;97787.00;5093164;28;20062;-47
2023/10/31 04:37:46;;;;;;;2.17;0.85;;;;;;;13.65;100.00;97787.09;5092974;28;20020;-48
2023/10/31 04:40:12;;;;;;;10.73;2.60;;;;;;;13.88;100.00;97777.34;5094318;28;20447;-48
2023/10/31 04:42:42;;;;;;;7.85;1.23;;;;;;;14.39;100.00;97780.63;5094324;28;20121;-48
2023/10/31 04:45:08;;;;;;;4.85;1.00;;;;;;;14.62;100.00;97776.94;5094081;28;20024;-48
2023/10/31 04:47:33;;;;;;;3.13;0.90;;;;;;;14.83;100.00;97770.03;5094145;28;20027;-48
2023/10/31 04:49:59;;;;;;;6.68;3.38;;;;;;;14.85;100.00;97767.94;5092902;28;20486;-48
2023/10/31 04:52:26;;;;;;;5.38;2.28;;;;;;;14.66;100.00;97780.66;5092777;28;20107;-48
2023/10/31 04:54:52;;;;;;;2.38;0.85;;;;;;;14.27;100.00;97770.19;5094006;28;20383;-47
2023/10/31 04:57:17;;;;;;;6.68;1.50;;;;;;;13.91;100.00;97785.59;5093899;28;20398;-48
2023/10/31 04:59:43;;;;;;;3.47;1.60;;;;;;;13.66;100.00;97783.41;5094278;28;20028;-48
2023/10/31 05:02:09;;;;;;;3.92;2.17;;;;;;;13.70;100.00;97786.34;5093858;28;20057;-48
2023/10/31 05:04:39;;;;;;;5.88;1.50;;;;;;;13.78;100.00;97781.47;5093878;28;20121;-48
2023/10/31 05:07:05;;;;;;;5.45;0.93;;;;;;;13.70;100.00;97781.88;5094100;28;20431;-47
2023/10/31 05:09:30;;;;;;;3.15;2.05;;;;;;;13.71;100.00;97788.75;5094059;28;20104;-47
2023/10/31 05:11:56;;;;;;;3.35;1.10;;;;;;;13.77;100.00;97785.13;5093721;28;20039;-48
2023/10/31 05:14:22;;;;;;;6.20;5.30;;;;;;;13.66;100.00;97795.78;5093461;28;20126;-48
2023/10/31 05:16:47;;;;;;;14.98;13.68;;;;;;;13.39;100.00;97799.09;5092554;28;20040;-47
2023/10/31 05:19:13;;;;;;;3.08;1.70;;;;;;;13.13;100.00;97797.84;5092309;28;20137;-47
2023/10/31 05:21:39;;;;;;;2.60;0.98;;;;;;;12.89;100.00;97800.59;5092291;28;20036;-48
2023/10/31 05:24:05;;;;;;;1.13;0.68;;;;;;;12.73;100.00;97802.16;5093547;28;20393;-48
2023/10/31 05:26:31;;;;;;;3.47;0.70;;;;;;;12.64;100.00;97806.22;5092142;28;20090;-48
2023/10/31 05:28:57;;;;;;;3.70;0.77;;;;;;;12.74;100.00;97806.41;5093484;28;20060;-48
2023/10/31 05:31:24;;;;;;;1.48;1.02;;;;;;;12.78;100.00;97806.75;5092035;28;20027;-47
2023/10/31 05:33:52;;;;;;;2.88;0.80;;;;;;;12.84;100.00;97803.16;5092115;28;20086;-47
2023/10/31 05:36:22;;;;;;;2.15;1.00;;;;;;;12.87;100.00;97807.94;5093527;28;20487;-48
2023/10/31 05:38:48;;;;;;;4.82;1.35;;;;;;;12.92;100.00;97802.78;5092357;28;20047;-48
2023/10/31 05:41:14;;;;;;;11.25;1.75;;;;;;;12.94;100.00;97805.97;5093143;28;20063;-48
2023/10/31 05:43:41;;;;;;;2.33;0.80;;;;;;;12.97;100.00;97802.06;5093131;28;20073;-47
2023/10/31 05:46:10;;;;;;;1.60;0.68;;;;;;;12.95;100.00;97812.81;5091716;28;20107;-48
2023/10/31 05:48:38;;;;;;;2.28;0.98;;;;;;;12.92;99.59;97815.94;5093042;28;20532;-47
2023/10/31 05:51:05;;;;;;;1.27;0.80;;;;;;;12.95;100.00;97820.72;5092964;28;20035;-47
2023/10/31 05:53:33;;;;;;;4.45;3.53;;;;;;;12.96;100.00;97822.34;5092968;28;20051;-47
2023/10/31 05:55:59;;;;;;;3.28;1.20;;;;;;;12.87;97.41;97813.22;5092888;28;20089;-47
2023/10/31 05:58:25;;;;;;;3.05;0.70;;;;;;;12.81;97.50;97816.78;5092699;28;20028;-47
2023/10/31 06:00:50;;;;;;;9.00;3.08;;;;;;;12.76;97.00;97824.59;5091423;28;20082;-47
2023/10/31 06:03:16;;;;;;;3.50;1.10;;;;;;;12.76;97.00;97819.34;5092725;28;20016;-47
2023/10/31 06:05:43;;;;;;;2.50;0.90;;;;;;;12.78;97.99;97828.59;5092624;28;20063;-48
2023/10/31 06:08:09;;;;;;;3.33;1.30;;;;;;;12.75;98.76;97828.25;5092597;28;20490;-48
2023/10/31 06:10:35;;;;;;;2.95;1.83;;;;;;;12.76;97.41;97835.13;5091291;28;20081;-47
2023/10/31 06:13:00;;;;;;;1.35;1.00;;;;;;;12.76;98.35;97822.78;5091284;28;20016;-48
2023/10/31 06:15:26;;;;;;;3.03;0.88;;;;;;;12.69;96.40;97831.84;5090971;28;20422;-47
2023/10/31 06:17:52;;;;;;;5.80;1.90;;;;;;;12.68;95.79;97838.16;5091080;28;20088;-48
2023/10/31 06:20:18;;;;;;;9.00;6.88;;;;;;;12.75;96.57;97850.13;5092467;28;20035;-47
2023/10/31 06:22:44;;;;;;;4.18;1.45;;;;;;;12.86;98.88;97851.13;5092444;28;20020;-47
2023/10/31 06:25:09;;;;;;;9.70;2.45;;;;;;;12.95;99.72;97848.91;5091064;28;20440;-47
2023/10/31 06:27:35;;;;;;;2.53;0.82;;;;;;;12.99;98.62;97850.03;5092567;28;20047;-47
2023/10/31 06:30:01;;;;;;;3.85;0.85;;;;;;;13.06;97.89;97857.78;5092314;28;20020;-47
2023/10/31 06:32:26;;;;;;;4.05;0.77;;;;;;;13.08;98.89;97864.44;5090960;28;20465;-47
2023/10/31 06:34:52;;;;;;;2.97;0.75;;;;;;;13.05;96.86;97853.56;5092224;28;20042;-47
2023/10/31 06:37:18;;;;;;;2.10;0.65;;;;;;;13.08;98.37;97867.06;5090792;28;20017;-47
2023/10/31 06:39:44;;;;;;;3.53;0.80;;;;;;;13.14;99.51;97860.06;5092080;28;20076;-47
2023/10/31 06:42:10;;;;;;;2.15;0.90;;;;;;;13.23;100.00;97860.47;5090773;28;20466;-48
2023/10/31 06:44:35;;;;;;;1.67;0.60;;;;;;;13.27;98.08;97870.28;5092011;28;20028;-48
2023/10/31 06:47:01;;;;;;;3.53;0.80;;;;;;;13.31;96.52;97874.06;5092035;28;20020;-47
2023/10/31 06:49:27;;;;;;;0.93;0.40;;;;;;;13.44;97.04;97877.44;5091964;28;20447;-47
2023/10/31 06:51:52;;;;;;;2.42;0.60;;;;;;;13.49;95.60;97880.16;5091993;28;20020;-47
2023/10/31 06:54:18;;;;;;;3.25;0.77;;;;;;;13.48;94.64;97873.28;5091953;28;20057;-48
2023/10/31 06:56:44;;;;;;;5.57;1.10;;;;;;;13.45;93.82;97879.84;5091843;28;20016;-48
2023/10/31 06:59:10;;;;;;;4.18;0.80;;;;;;;13.53;93.96;97891.81;5091847;28;20029;-47
2023/10/31 07:01:35;;;;;;;4.80;1.33;;;;;;;13.57;93.90;97892.94;5090527;28;20032;-47
2023/10/31 07:04:01;;;;;;;2.05;1.05;;;;;;;13.68;95.30;97894.72;5092198;28;20056;-47
2023/10/31 07:06:27;;;;;;;2.42;1.00;;;;;;;13.76;94.61;97896.94;5090554;28;20024;-48
2023/10/31 07:08:52;;;;;;;2.80;0.88;;;;;;;13.77;92.41;97892.47;5090822;28;20028;-48
2023/10/31 07:11:18;;;;;;;1.30;0.57;;;;;;;13.74;91.01;97896.41;5091792;28;20062;-47
2023/10/31 07:13:44;;;;;;;3.65;1.00;;;;;;;13.71;88.87;97909.25;5091789;28;20031;-48
2023/10/31 07:16:10;;;;;;;4.35;1.45;;;;;;;13.70;87.96;97900.53;5090371;28;20041;-47
2023/10/31 07:18:35;;;;;;;1.40;0.70;;;;;;;13.72;85.66;97901.09;5091704;28;20024;-47
2023/10/31 07:21:01;;;;;;;4.03;1.50;;;;;;;13.66;86.28;97893.34;5090488;28;20028;-47
2023/10/31 07:23:27;;;;;;;1.65;0.60;;;;;;;13.63;86.07;97901.75;5090409;28;20020;-47
2023/10/31 07:25:53;;;;;;;1.65;0.55;;;;;;;13.59;85.57;97899.56;5091677;28;20028;-48
2023/10/31 07:28:18;;;;;;;1.50;0.70;;;;;;;13.65;84.53;97905.72;5090327;28;20032;-47
2023/10/31 07:30:44;;;;;;;4.20;1.52;;;;;;;13.69;88.17;97896.28;5091619;28;20028;-48
2023/10/31 07:33:10;;;;;;;2.13;0.55;;;;;;;13.73;85.57;97920.34;5091634;28;20012;-47
2023/10/31 07:35:36;;;;;;;3.60;0.90;;;;;;;13.76;85.79;97925.97;5091581;28;20024;-47
2023/10/31 07:38:01;;;;;;;4.05;0.68;;;;;;;13.81;87.69;97933.16;5091426;28;20111;-47
2023/10/31 07:40:27;;;;;;;2.75;0.57;;;;;;;13.81;86.76;97932.34;5090139;28;20028;-47
2023/10/31 07:42:53;;;;;;;2.95;0.77;;;;;;;13.74;83.58;97920.13;5090294;28;20020;-47
2023/10/31 07:45:18;;;;;;;2.25;0.70;;;;;;;13.60;81.61;97937.25;5091419;28;20073;-47
2023/10/31 07:47:44;;;;;;;1.02;0.60;;;;;;;13.50;83.16;97929.19;5090140;28;20099;-47
2023/10/31 07:50:10;;;;;;;3.25;2.47;;;;;;;13.28;84.22;97934.31;5091431;28;20028;-47
2023/10/31 07:52:35;;;;;;;10.15;8.73;;;;;;;12.96;85.03;97946.13;5091456;28;20431;-47
2023/10/31 07:55:01;;;;;;;2.80;1.23;;;;;;;12.76;87.99;97946.50;5091366;28;20024;-47
2023/10/31 07:57:27;;;;;;;2.13;0.60;;;;;;;12.66;88.46;97950.78;5091348;28;20099;-47
2023/10/31 07:59:52;;;;;;;3.10;0.90;;;;;;;12.68;90.28;97948.72;5090013;28;20024;-47
2023/10/31 08:02:18;;;;;;;0.85;0.47;;;;;;;12.80;88.84;97941.59;5094464;28;20017;-48
2023/10/31 08:04:44;;;;;;;1.50;0.60;;;;;;;12.95;90.05;97949.78;5093827;28;20115;-48
2023/10/31 08:07:09;;;;;;;2.75;0.80;;;;;;;13.10;88.36;97951.91;5094998;28;20020;-48
2023/10/31 08:09:35;;;;;;;2.92;0.52;;;;;;;13.29;88.40;97963.09;5094888;28;20512;-48
2023/10/31 08:12:00;;;;;;;5.38;1.05;;;;;;;13.44;88.32;97961.78;5094828;28;20032;-48
2023/10/31 08:14:26;;;;;;;6.70;0.80;;;;;;;13.58;87.26;97961.25;5094609;28;20096;-48
2023/10/31 08:16:52;;;;;;;4.65;1.67;;;;;;;13.74;86.80;97956.22;5076639;28;20020;-48
2023/10/31 08:19:17;;;;;;;4.95;0.90;;;;;;;14.02;87.46;97955.34;5093499;28;20485;-47
2023/10/31 08:21:43;;;;;;;13.20;11.05;;;;;;;14.21;86.38;97957.75;5094698;28;20095;-48
2023/10/31 08:24:10;;;;;;;1.77;1.15;;;;;;;14.30;83.54;97953.66;5094583;28;20032;-48
2023/10/31 08:26:36;;;;;;;1.42;0.80;;;;;;;14.39;82.12;97957.50;5094560;28;20505;-47
2023/10/31 08:29:01;;;;;;;4.57;1.65;;;;;;;14.58;84.90;97971.25;5093234;28;20055;-47
2023/10/31 08:31:27;;;;;;;4.93;4.45;;;;;;;14.74;83.70;97970.38;5094449;28;20020;-48
2023/10/31 08:33:53;;;;;;;0.85;0.80;;;;;;;14.81;82.30;97967.59;5094492;28;20047;-48
2023/10/31 08:36:18;;;;;;;7.57;0.80;;;;;;;14.87;81.40;97971.88;5093369;28;20026;-48
2023/10/31 08:38:44;;;;;;;3.80;1.20;;;;;;;15.01;81.13;97977.59;5093004;28;20035;-47
2023/10/31 08:41:10;;;;;;;2.95;1.77;;;;;;;15.15;80.32;97973.53;5094337;28;20028;-48
2023/10/31 08:43:35;;;;;;;8.02;0.98;;;;;;;15.18;81.69;97973.03;5094301;28;20024;-48
2023/10/31 08:46:01;;;;;;;3.28;0.70;;;;;;;15.24;77.95;97987.09;5094255;28;20051;-48
2023/10/31 08:48:27;;;;;;;1.77;0.70;;;;;;;15.27;80.00;97991.09;5094217;28;20481;-48
2023/10/31 08:50:53;;;;;;;2.90;1.40;;;;;;;15.20;80.06;97983.34;5094234;28;20500;-48
2023/10/31 08:53:21;;;;;;;3.50;1.35;;;;;;;15.10;80.87;97991.97;5094147;28;20069;-48
2023/10/31 08:55:47;;;;;;;5.63;1.17;;;;;;;15.06;79.79;97990.88;5092686;28;20052;-48
2023/10/31 08:58:13;;;;;;;6.78;0.98;;;;;;;15.17;79.24;97989.13;5092570;28;20518;-48
2023/10/31 09:00:43;;;;;;;2.42;1.08;;;;;;;15.35;76.46;97990.66;5093939;28;20020;-47
2023/10/31 09:03:09;;;;;;;4.90;1.25;;;;;;;15.48;77.35;98002.69;5093920;28;20024;-47
2023/10/31 09:05:35;;;;;;;14.93;11.38;;;;;;;15.65;77.91;98006.03;5093880;28;20024;-47
2023/10/31 09:08:01;;;;;;;24.65;13.57;;;;;;;15.73;77.58;98013.53;5092498;28;20550;-48
2023/10/31 09:10:26;;;;;;;15.90;5.57;;;;;;;15.62;74.14;98001.25;5093830;28;20415;-48
2023/10/31 09:12:52;;;;;;;44.10;25.10;;;;;;;15.59;77.07;98020.25;5092603;28;20047;-48
2023/10/31 09:15:21;;;;;;;23.25;15.65;;;;;;;15.76;77.96;98018.34;5093377;28;20429;-48
2023/10/31 09:17:47;;;;;;;7.43;5.60;;;;;;;15.83;75.50;98012.06;5092202;28;20020;-47
2023/10/31 09:20:13;;;;;;;26.70;23.08;;;;;;;16.09;79.50;98032.38;5092394;28;20504;-48
2023/10/31 09:22:39;;;;;;;24.23;15.93;;;;;;;16.23;74.06;98026.69;5093522;28;20028;-48
2023/10/31 09:25:05;;;;;;;8.65;7.18;;;;;;;16.32;74.52;98018.03;5093443;28;20035;-48
2023/10/31 09:27:30;;;;;;;11.43;10.25;;;;;;;16.23;71.30;98016.88;5093476;28;20056;-48
2023/10/31 09:29:56;;;;;;;33.75;30.65;;;;;;;16.27;72.51;98025.91;5092170;28;20024;-48
2023/10/31 09:32:22;;;;;;;14.43;11.55;;;;;;;16.41;70.07;98034.22;5092026;28;20024;-48
2023/10/31 09:34:47;;;;;;;7.10;5.57;;;;;;;17.19;71.22;98019.59;5075157;28;20074;-48
2023/10/31 09:37:13;;;;;;;8.18;5.28;;;;;;;18.37;69.51;98001.97;5091991;28;20099;-48
2023/10/31 09:39:39;;;;;;;8.95;6.13;;;;;;;19.80;65.86;98021.97;5091956;28;20032;-47
2023/10/31 09:42:06;;;;;;;9.00;7.30;;;;;;;20.82;59.22;98019.50;5093159;28;20024;-46
2023/10/31 09:44:32;;;;;;;49.00;45.20;;;;;;;21.82;60.86;98027.59;5093061;28;20084;-46
2023/10/31 09:46:58;;;;;;;72.32;65.50;;;;;;;22.92;57.35;98032.44;5093246;28;20109;-46
2023/10/31 09:49:24;;;;;;;40.20;33.08;;;;;;;22.66;52.63;98029.47;5091706;28;20482;-46
2023/10/31 09:51:50;;;;;;;25.67;23.25;;;;;;;22.97;51.79;98026.19;5093188;28;20394;-46
2023/10/31 09:54:17;;;;;;;6.65;4.25;;;;;;;23.19;52.43;98028.97;5093003;28;20038;-47
2023/10/31 09:56:43;;;;;;;1.40;1.00;;;;;;;22.44;50.04;98030.09;5091655;28;20068;-46
2023/10/31 09:59:09;;;;;;;1.92;0.60;;;;;;;21.34;48.77;98044.50;5091451;28;20056;-46
2023/10/31 10:01:35;;;;;;;3.20;0.80;;;;;;;20.51;50.93;98051.78;5092803;28;20081;-46
2023/10/31 10:04:01;;;;;;;1.45;0.70;;;;;;;19.80;49.56;98053.09;5091493;28;20028;-46
2023/10/31 10:06:27;;;;;;;3.85;1.17;;;;;;;19.19;50.63;98052.31;5092675;28;20024;-46
2023/10/31 10:08:55;;;;;;;3.13;0.73;;;;;;;18.79;53.80;98051.34;5092695;28;20551;-46
2023/10/31 10:11:22;;;;;;;3.72;0.60;;;;;;;18.53;56.67;98058.53;5091331;28;20405;-46
2023/10/31 10:13:48;;;;;;;5.32;0.70;;;;;;;18.36;57.30;98080.88;5091340;28;20028;-46
2023/10/31 10:16:29;;;;;;;33.20;1.98;;;;;;;18.08;56.07;98089.34;5092348;28;20421;-46
2023/10/31 10:18:55;;;;;;;8.38;0.82;;;;;;;17.88;58.48;98088.25;5092476;28;20032;-46
2023/10/31 10:21:20;;;;;;;21.50;4.95;;;;;;;17.88;58.53;98090.13;5091127;28;20080;-46
2023/10/31 10:23:49;;;;;;;14.02;2.17;;;;;;;18.08;60.05;98087.50;5092067;28;20509;-46
2023/10/31 10:26:15;;;;;;;9.18;1.30;;;;;;;18.29;58.14;98085.66;5092428;28;20529;-46
2023/10/31 10:28:40;;;;;;;1.15;0.35;;;;;;;18.16;56.03;98108.22;5091018;28;20028;-46
2023/10/31 10:31:06;;;;;;;19.60;2.65;;;;;;;18.11;59.03;98113.53;5091028;28;20498;-46
2023/10/31 10:33:34;;;;;;;4.63;0.80;;;;;;;18.20;59.12;98115.66;5090983;28;20016;-46
2023/10/31 10:35:59;;;;;;;2.35;0.60;;;;;;;18.36;59.51;98119.94;5092181;28;20036;-46
2023/10/31 10:38:27;;;;;;;3.03;0.50;;;;;;;18.74;55.83;98125.78;5090761;28;20089;-46
2023/10/31 10:40:55;;;;;;;5.93;0.57;;;;;;;19.05;55.15;98136.41;5090775;28;20067;-46
2023/10/31 10:43:23;;;;;;;2.70;0.95;;;;;;;18.90;53.92;98134.56;5090918;28;20101;-46
2023/10/31 10:46:10;;;;;;;4.35;0.65;;;;;;;18.64;57.01;98136.41;5074214;28;20394;-46
2023/10/31 10:48:41;;;;;;;2.03;0.52;;;;;;;18.48;58.12;98133.75;5092059;28;20063;-46
2023/10/31 10:51:23;;;;;;;2.33;0.60;;;;;;;18.53;55.91;98139.09;5092016;28;20020;-46
2023/10/31 10:53:53;;;;;;;2.00;0.50;;;;;;;18.49;56.04;98140.69;5090812;28;20020;-46
2023/10/31 10:56:37;;;;;;;7.25;0.90;;;;;;;18.55;53.52;98121.00;5091950;28;20094;-46
2023/10/31 10:59:13;;;;;;;6.30;0.73;;;;;;;18.56;52.99;98140.41;5091000;28;20040;-46
2023/10/31 11:01:41;;;;;;;4.38;1.00;;;;;;;18.65;52.35;98154.78;5091952;28;20028;-46
2023/10/31 11:04:07;;;;;;;16.08;1.52;;;;;;;18.98;52.75;98147.31;5091872;28;20035;-46
2023/10/31 11:06:35;;;;;;;0.95;0.52;;;;;;;19.34;49.73;98137.41;5090881;28;20489;-46
2023/10/31 11:09:01;;;;;;;4.68;0.80;;;;;;;20.09;50.98;98143.75;5090582;28;20032;-46
2023/10/31 11:11:27;;;;;;;2.80;1.13;;;;;;;21.80;47.66;98148.06;5091818;28;20016;-46
2023/10/31 11:13:59;;;;;;;1.95;0.52;;;;;;;22.76;43.13;98138.94;5091788;28;20050;-46
2023/10/31 11:16:32;;;;;;;4.45;0.80;;;;;;;22.38;44.26;98132.88;5091626;28;20052;-46
2023/10/31 11:18:57;;;;;;;0.88;0.50;;;;;;;21.97;45.70;98133.44;5073598;28;20032;-46
2023/10/31 11:21:23;;;;;;;3.42;0.90;;;;;;;21.63;45.87;98142.41;5073621;28;20448;-46